createdAt,value
2019-01-28T00:01:50.666Z,99.90
2019-01-28T00:04:19.532Z,99.90
2019-01-28T00:06:48.924Z,99.90
2019-01-28T00:09:18.215Z,99.90
2019-01-28T00:11:47.174Z,99.90
2019-01-28T00:14:16.147Z,99.90
2019-01-28T00:16:45.380Z,99.90
2019-01-28T00:19:14.323Z,99.90
2019-01-28T00:21:43.499Z,99.90
2019-01-28T00:24:12.447Z,99.90
2019-01-28T00:26:41.398Z,99.90
2019-01-28T00:29:10.243Z,99.90
2019-01-28T00:31:39.362Z,99.90
2019-01-28T00:34:08.234Z,99.90
2019-01-28T00:36:37.517Z,99.90
2019-01-28T00:39:09.162Z,99.90
2019-01-28T00:41:38.294Z,99.90
2019-01-28T00:44:07.139Z,99.90
2019-01-28T00:46:36.083Z,99.90
2019-01-28T00:49:04.963Z,99.90
2019-01-28T00:51:33.737Z,99.90
2019-01-28T00:54:02.506Z,99.90
2019-01-28T00:56:31.423Z,99.90
2019-01-28T00:59:00.552Z,99.90
2019-01-28T01:01:30.139Z,99.90
2019-01-28T01:03:59.540Z,99.90
2019-01-28T01:06:28.722Z,99.90
2019-01-28T01:08:57.823Z,99.90
2019-01-28T01:11:26.687Z,99.90
2019-01-28T01:13:55.618Z,99.90
2019-01-28T01:16:30.261Z,99.90
2019-01-28T01:18:59.373Z,99.90
2019-01-28T01:21:28.372Z,99.90
2019-01-28T01:23:57.175Z,99.90
2019-01-28T01:26:26.075Z,99.90
2019-01-28T01:28:54.891Z,99.90
2019-01-28T01:31:24.164Z,99.90
2019-01-28T01:33:52.941Z,99.90
2019-01-28T01:36:21.813Z,99.90
2019-01-28T01:38:50.727Z,99.90
2019-01-28T01:41:19.579Z,99.90
2019-01-28T01:43:48.519Z,99.90
2019-01-28T01:46:17.325Z,99.90
2019-01-28T01:48:46.151Z,99.90
2019-01-28T01:51:15.021Z,99.90
2019-01-28T01:53:43.874Z,99.90
2019-01-28T01:56:12.726Z,99.90
2019-01-28T01:58:41.550Z,99.90
2019-01-28T02:01:10.686Z,99.90
2019-01-28T02:03:39.589Z,99.90
2019-01-28T02:06:08.671Z,99.90
2019-01-28T02:08:37.533Z,99.90
2019-01-28T02:11:06.580Z,99.90
2019-01-28T02:13:35.493Z,99.90
2019-01-28T02:16:04.510Z,99.90
2019-01-28T02:18:33.289Z,99.90
2019-01-28T02:21:02.138Z,99.90
2019-01-28T02:23:30.954Z,99.90
2019-01-28T02:25:59.854Z,99.90
2019-01-28T02:28:29.074Z,99.90
2019-01-28T02:30:58.466Z,99.90
2019-01-28T02:33:27.350Z,99.90
2019-01-28T02:35:56.160Z,99.90
2019-01-28T02:38:25.044Z,99.90
2019-01-28T02:40:54.236Z,99.90
2019-01-28T02:43:22.999Z,99.90
2019-01-28T02:45:51.824Z,99.90
2019-01-28T02:48:20.683Z,99.90
2019-01-28T02:50:49.578Z,99.90
2019-01-28T02:53:18.445Z,99.90
2019-01-28T02:55:47.512Z,99.90
2019-01-28T02:58:16.549Z,99.90
2019-01-28T03:00:45.352Z,99.90
2019-01-28T03:03:14.141Z,99.90
2019-01-28T03:05:43.031Z,99.90
2019-01-28T03:08:12.042Z,99.90
2019-01-28T03:10:41.040Z,99.90
2019-01-28T03:13:09.862Z,99.90
2019-01-28T03:15:38.659Z,99.90
2019-01-28T03:18:07.688Z,99.90
2019-01-28T03:20:36.594Z,99.90
2019-01-28T03:23:06.291Z,99.90
2019-01-28T03:25:35.255Z,99.90
2019-01-28T03:28:04.118Z,99.90
2019-01-28T03:30:44.372Z,99.90
2019-01-28T03:33:13.233Z,99.90
2019-01-28T03:35:42.487Z,99.90
2019-01-28T03:38:11.261Z,99.90
2019-01-28T03:40:40.111Z,99.90
2019-01-28T03:43:09.102Z,99.90
2019-01-28T03:45:37.952Z,99.90
2019-01-28T03:48:06.797Z,99.90
2019-01-28T03:50:35.761Z,99.90
2019-01-28T03:53:04.739Z,99.90
2019-01-28T03:55:33.828Z,99.90
2019-01-28T03:58:02.700Z,99.90
2019-01-28T04:00:31.804Z,99.90
2019-01-28T04:03:00.712Z,99.90
2019-01-28T04:05:30.044Z,99.90
2019-01-28T04:07:58.927Z,99.90
2019-01-28T04:10:27.817Z,99.90
2019-01-28T04:12:56.680Z,99.90
2019-01-28T04:15:26.927Z,99.90
2019-01-28T04:17:55.858Z,99.90
2019-01-28T04:20:26.706Z,99.90
2019-01-28T04:22:55.667Z,99.90
2019-01-28T04:25:24.685Z,99.90
2019-01-28T04:27:53.526Z,99.90
2019-01-28T04:30:24.023Z,99.90
2019-01-28T04:32:52.932Z,99.90
2019-01-28T04:35:21.853Z,99.90
2019-01-28T04:37:50.854Z,99.90
2019-01-28T04:40:19.968Z,99.90
2019-01-28T04:42:48.824Z,99.90
2019-01-28T04:45:18.098Z,99.90
2019-01-28T04:47:48.072Z,99.90
2019-01-28T04:50:18.450Z,99.90
2019-01-28T04:52:47.365Z,99.90
2019-01-28T04:55:16.504Z,99.90
2019-01-28T04:57:45.765Z,99.90
2019-01-28T05:00:17.188Z,99.90
2019-01-28T05:02:46.138Z,99.90
2019-01-28T05:05:15.087Z,99.90
2019-01-28T05:07:43.991Z,99.90
2019-01-28T05:10:13.984Z,99.90
2019-01-28T05:12:42.852Z,99.90
2019-01-28T05:15:12.630Z,99.90
2019-01-28T05:17:41.792Z,99.90
2019-01-28T05:20:12.618Z,99.90
2019-01-28T05:22:42.036Z,99.90
2019-01-28T05:25:12.303Z,99.90
2019-01-28T05:27:41.268Z,99.90
2019-01-28T05:30:14.906Z,99.90
2019-01-28T05:32:43.954Z,99.90
2019-01-28T05:35:14.540Z,99.90
2019-01-28T05:37:43.425Z,99.90
2019-01-28T05:40:15.186Z,99.90
2019-01-28T05:42:44.085Z,99.90
2019-01-28T05:45:14.252Z,99.90
2019-01-28T05:47:44.019Z,99.90
2019-01-28T05:50:13.167Z,99.90
2019-01-28T05:52:42.193Z,99.90
2019-01-28T05:55:11.836Z,99.90
2019-01-28T05:57:40.841Z,99.90
2019-01-28T06:00:14.568Z,99.90
2019-01-28T06:02:43.543Z,99.90
2019-01-28T06:05:13.064Z,99.90
2019-01-28T06:07:42.543Z,99.90
2019-01-28T06:10:12.441Z,99.90
2019-01-28T06:12:41.894Z,99.90
2019-01-28T06:15:14.245Z,99.90
2019-01-28T06:17:44.356Z,99.90
2019-01-28T06:20:16.927Z,99.90
2019-01-28T06:22:46.012Z,99.90
2019-01-28T06:25:15.446Z,99.90
2019-01-28T06:27:44.429Z,99.90
2019-01-28T06:30:19.809Z,99.90
2019-01-28T06:32:49.029Z,99.90
2019-01-28T06:35:18.467Z,99.90
2019-01-28T06:37:47.799Z,99.90
2019-01-28T06:40:19.426Z,99.90
2019-01-28T06:42:49.034Z,99.90
2019-01-28T06:45:17.980Z,99.90
2019-01-28T06:47:48.022Z,99.90
2019-01-28T06:50:18.375Z,99.90
2019-01-28T06:52:47.479Z,99.90
2019-01-28T06:55:17.390Z,99.90
2019-01-28T06:57:46.468Z,99.90
2019-01-28T07:00:30.748Z,99.90
2019-01-28T07:03:00.063Z,99.90
2019-01-28T07:05:29.449Z,99.90
2019-01-28T07:07:58.313Z,99.90
2019-01-28T07:10:27.154Z,99.90
2019-01-28T07:12:56.116Z,99.90
2019-01-28T07:15:25.480Z,99.90
2019-01-28T07:17:55.390Z,99.90
2019-01-28T07:20:27.670Z,99.90
2019-01-28T07:22:56.604Z,99.90
2019-01-28T07:25:25.931Z,99.90
2019-01-28T07:27:55.414Z,99.90
2019-01-28T07:30:26.772Z,99.90
2019-01-28T07:32:55.772Z,99.90
2019-01-28T07:35:25.006Z,99.90
2019-01-28T07:37:53.977Z,99.90
2019-01-28T07:40:23.203Z,99.90
2019-01-28T07:42:52.133Z,99.90
2019-01-28T07:45:29.807Z,99.90
2019-01-28T07:48:03.105Z,99.90
2019-01-28T07:50:29.290Z,99.90
2019-01-28T07:52:58.198Z,99.90
2019-01-28T07:55:27.180Z,99.90
2019-01-28T07:57:56.084Z,99.90
2019-01-28T08:00:26.719Z,99.90
2019-01-28T08:02:55.724Z,99.90
2019-01-28T08:05:24.982Z,99.90
2019-01-28T08:07:54.057Z,99.90
2019-01-28T08:10:23.374Z,99.90
2019-01-28T08:12:52.836Z,99.90
2019-01-28T08:15:23.112Z,99.90
2019-01-28T08:17:52.096Z,99.90
2019-01-28T08:20:21.109Z,99.90
2019-01-28T08:22:50.554Z,99.90
2019-01-28T08:25:20.208Z,99.90
2019-01-28T08:27:49.546Z,99.90
2019-01-28T08:30:20.993Z,99.90
2019-01-28T08:32:50.237Z,99.90
2019-01-28T08:35:19.259Z,99.90
2019-01-28T08:37:48.497Z,99.90
2019-01-28T08:40:18.137Z,99.90
2019-01-28T08:42:47.449Z,99.90
2019-01-28T08:45:17.131Z,99.90
2019-01-28T08:47:46.292Z,99.90
2019-01-28T08:50:18.135Z,99.90
2019-01-28T08:52:47.313Z,99.90
2019-01-28T08:55:18.533Z,99.90
2019-01-28T08:57:49.022Z,99.90
2019-01-28T09:00:20.558Z,99.90
2019-01-28T09:02:49.456Z,99.90
2019-01-28T09:05:19.178Z,99.90
2019-01-28T09:07:48.110Z,99.90
2019-01-28T09:10:18.423Z,99.90
2019-01-28T09:12:47.339Z,99.90
2019-01-28T09:15:17.881Z,99.90
2019-01-28T09:17:46.854Z,99.90
2019-01-28T09:20:17.997Z,99.90
2019-01-28T09:22:46.991Z,99.90
2019-01-28T09:25:16.165Z,99.90
2019-01-28T09:27:45.343Z,99.90
2019-01-28T09:30:28.934Z,99.90
2019-01-28T09:32:57.848Z,99.90
2019-01-28T09:35:26.896Z,99.90
2019-01-28T09:37:57.095Z,99.90
2019-01-28T09:40:27.474Z,99.90
2019-01-28T09:42:56.635Z,99.90
2019-01-28T09:45:28.066Z,99.90
2019-01-28T09:47:56.942Z,99.90
2019-01-28T09:50:26.304Z,99.90
2019-01-28T09:52:56.020Z,99.90
2019-01-28T09:55:24.986Z,99.90
2019-01-28T09:57:53.945Z,99.90
2019-01-28T10:00:31.906Z,99.90
2019-01-28T10:03:01.234Z,99.90
2019-01-28T10:05:30.204Z,99.90
2019-01-28T10:07:59.282Z,99.90
2019-01-28T10:10:28.216Z,99.90
2019-01-28T10:12:57.527Z,99.90
2019-01-28T10:15:29.003Z,99.90
2019-01-28T10:17:57.627Z,99.90
2019-01-28T10:20:31.499Z,99.90
2019-01-28T10:23:00.777Z,99.90
2019-01-28T10:25:30.243Z,99.90
2019-01-28T10:27:59.415Z,99.90
2019-01-28T10:30:30.735Z,99.90
2019-01-28T10:32:59.780Z,99.90
2019-01-28T10:35:29.947Z,99.90
2019-01-28T10:37:58.927Z,99.90
2019-01-28T10:40:29.979Z,99.90
2019-01-28T10:43:00.937Z,99.90
2019-01-28T10:45:30.167Z,99.90
2019-01-28T10:48:00.884Z,99.90
2019-01-28T10:50:29.998Z,99.90
2019-01-28T10:52:58.848Z,99.90
2019-01-28T10:55:28.131Z,99.90
2019-01-28T10:57:57.219Z,99.90
2019-01-28T11:00:31.522Z,99.90
2019-01-28T11:03:00.812Z,99.90
2019-01-28T11:05:29.828Z,99.90
2019-01-28T11:07:58.806Z,99.90
2019-01-28T11:10:28.329Z,99.90
2019-01-28T11:12:57.359Z,99.90
2019-01-28T11:15:27.500Z,99.90
2019-01-28T11:17:57.129Z,99.90
2019-01-28T11:20:26.916Z,99.90
2019-01-28T11:22:55.882Z,99.90
2019-01-28T11:25:27.235Z,99.90
2019-01-28T11:27:56.182Z,99.90
2019-01-28T11:30:32.220Z,99.90
2019-01-28T11:33:01.173Z,99.90
2019-01-28T11:35:30.371Z,99.90
2019-01-28T11:37:59.388Z,99.90
2019-01-28T11:40:28.611Z,99.90
2019-01-28T11:42:57.943Z,99.90
2019-01-28T11:45:29.802Z,99.90
2019-01-28T11:47:58.709Z,99.90
2019-01-28T11:50:27.656Z,99.90
2019-01-28T11:52:56.720Z,99.90
2019-01-28T11:55:25.563Z,99.90
2019-01-28T11:57:54.498Z,99.90
2019-01-28T12:00:30.991Z,99.90
2019-01-28T12:03:00.182Z,99.90
2019-01-28T12:05:29.490Z,99.90
2019-01-28T12:07:58.426Z,99.90
2019-01-28T12:10:27.623Z,99.90
2019-01-28T12:12:56.495Z,99.90
2019-01-28T12:15:25.452Z,99.90
2019-01-28T12:17:54.514Z,99.90
2019-01-28T12:20:23.933Z,99.90
2019-01-28T12:22:53.388Z,99.90
2019-01-28T12:25:22.703Z,99.90
2019-01-28T12:27:51.737Z,99.90
2019-01-28T12:30:23.049Z,99.90
2019-01-28T12:32:52.479Z,99.90
2019-01-28T12:35:21.545Z,99.90
2019-01-28T12:37:50.510Z,99.90
2019-01-28T12:40:19.847Z,99.90
2019-01-28T12:42:49.111Z,99.90
2019-01-28T12:45:19.210Z,99.90
2019-01-28T12:47:48.896Z,99.90
2019-01-28T12:50:18.741Z,99.90
2019-01-28T12:52:48.232Z,99.90
2019-01-28T12:55:17.877Z,99.90
2019-01-28T12:57:46.953Z,99.90
2019-01-28T13:00:29.881Z,99.90
2019-01-28T13:02:58.967Z,99.90
2019-01-28T13:05:28.217Z,99.90
2019-01-28T13:07:57.707Z,99.90
2019-01-28T13:10:26.980Z,99.90
2019-01-28T13:12:55.843Z,99.90
2019-01-28T13:15:26.609Z,99.90
2019-01-28T13:17:56.140Z,99.90
2019-01-28T13:20:25.340Z,99.90
2019-01-28T13:22:54.304Z,99.90
2019-01-28T13:25:24.588Z,99.90
2019-01-28T13:27:53.387Z,99.90
2019-01-28T13:30:24.698Z,99.90
2019-01-28T13:32:54.335Z,99.90
2019-01-28T13:35:23.572Z,99.90
2019-01-28T13:37:52.465Z,99.90
2019-01-28T13:40:21.550Z,99.90
2019-01-28T13:42:50.396Z,99.90
2019-01-28T13:45:19.607Z,99.90
2019-01-28T13:47:49.498Z,99.90
2019-01-28T13:50:20.136Z,99.90
2019-01-28T13:52:49.839Z,99.90
2019-01-28T13:55:19.243Z,99.90
2019-01-28T13:57:48.835Z,99.90
2019-01-28T14:00:23.583Z,99.90
2019-01-28T14:02:52.514Z,99.90
2019-01-28T14:05:21.735Z,99.90
2019-01-28T14:07:50.664Z,99.90
2019-01-28T14:10:19.852Z,99.90
2019-01-28T14:12:49.166Z,99.90
2019-01-28T14:15:24.490Z,99.90
2019-01-28T14:17:53.348Z,99.90
2019-01-28T14:20:22.563Z,99.90
2019-01-28T14:22:51.634Z,99.90
2019-01-28T14:25:20.590Z,99.90
2019-01-28T14:27:50.113Z,99.90
2019-01-28T14:30:44.952Z,99.90
2019-01-28T14:33:13.904Z,99.90
2019-01-28T14:35:42.809Z,99.90
2019-01-28T14:38:13.042Z,99.90
2019-01-28T14:40:43.003Z,99.90
2019-01-28T14:43:11.946Z,99.90
2019-01-28T14:48:02.147Z,99.90
2019-01-28T14:50:32.312Z,99.90
2019-01-28T14:53:01.704Z,99.90
2019-01-28T14:55:30.691Z,99.90
2019-01-28T14:57:59.844Z,99.90
2019-01-28T15:00:31.253Z,99.90
2019-01-28T15:03:00.183Z,99.90
2019-01-28T15:05:29.049Z,99.90
2019-01-28T15:07:58.218Z,99.90
2019-01-28T15:10:27.764Z,99.90
2019-01-28T15:12:56.918Z,99.90
2019-01-28T15:15:31.436Z,99.90
2019-01-28T15:18:00.374Z,99.90
2019-01-28T15:20:30.120Z,99.90
2019-01-28T15:22:59.587Z,99.90
2019-01-28T15:25:29.112Z,98.60
2019-01-28T15:27:57.915Z,99.10
2019-01-28T15:30:28.293Z,98.80
2019-01-28T15:32:57.387Z,98.30
2019-01-28T15:35:27.289Z,98.30
2019-01-28T15:37:56.183Z,99.70
2019-01-28T15:40:27.724Z,99.70
2019-01-28T15:42:56.859Z,99.90
2019-01-28T15:45:37.173Z,98.30
2019-01-28T15:48:07.052Z,97.20
2019-01-28T15:50:36.050Z,96.70
2019-01-28T15:53:05.883Z,97.10
2019-01-28T15:55:36.697Z,96.00
2019-01-28T15:58:06.508Z,95.10
2019-01-28T16:00:36.217Z,94.50
2019-01-28T16:03:07.478Z,94.20
2019-01-28T16:05:36.504Z,95.00
2019-01-28T16:08:06.253Z,93.90
2019-01-28T16:10:35.215Z,93.60
2019-01-28T16:13:04.399Z,93.40
2019-01-28T16:15:35.736Z,94.10
2019-01-28T16:18:08.841Z,94.00
2019-01-28T16:20:36.760Z,94.50
2019-01-28T16:23:06.339Z,91.50
2019-01-28T16:25:36.236Z,92.30
2019-01-28T16:28:06.025Z,92.50
2019-01-28T16:30:35.732Z,91.30
2019-01-28T16:33:05.379Z,91.40
2019-01-28T16:35:34.637Z,90.10
2019-01-28T16:38:04.190Z,90.20
2019-01-28T16:40:33.807Z,90.20
2019-01-28T16:43:02.871Z,90.60
2019-01-28T16:45:31.896Z,91.00
2019-01-28T16:48:01.183Z,91.40
2019-01-28T16:50:30.951Z,91.40
2019-01-28T16:52:59.887Z,92.30
2019-01-28T16:55:28.747Z,91.40
2019-01-28T16:57:58.311Z,91.70
2019-01-28T17:00:29.212Z,92.20
2019-01-28T17:02:58.059Z,92.70
2019-01-28T17:05:27.470Z,93.40
2019-01-28T17:07:56.768Z,93.60
2019-01-28T17:10:26.093Z,92.90
2019-01-28T17:12:55.062Z,93.20
2019-01-28T17:15:25.138Z,93.90
2019-01-28T17:17:54.208Z,93.40
2019-01-28T17:20:25.467Z,94.00
2019-01-28T17:22:54.544Z,93.70
2019-01-28T17:25:38.712Z,93.50
2019-01-28T17:28:07.598Z,94.10
2019-01-28T17:30:41.723Z,94.60
2019-01-28T17:33:10.879Z,93.90
2019-01-28T17:35:40.077Z,93.80
2019-01-28T17:38:10.012Z,94.40
2019-01-28T17:40:40.344Z,94.30
2019-01-28T17:43:10.589Z,94.80
2019-01-28T17:45:39.847Z,94.50
2019-01-28T17:48:09.350Z,94.70
2019-01-28T17:50:43.622Z,94.30
2019-01-28T17:53:09.852Z,94.40
2019-01-28T17:55:38.844Z,93.90
2019-01-28T17:58:08.919Z,93.80
2019-01-28T18:00:46.095Z,93.70
2019-01-28T18:03:15.045Z,94.70
2019-01-28T18:05:44.140Z,95.00
2019-01-28T18:08:13.091Z,96.40
2019-01-28T18:10:42.039Z,97.40
2019-01-28T18:13:11.181Z,98.10
2019-01-28T18:15:40.472Z,99.10
2019-01-28T18:18:10.264Z,99.90
2019-01-28T18:20:39.269Z,99.90
2019-01-28T18:23:09.950Z,99.90
2019-01-28T18:25:39.282Z,99.90
2019-01-28T18:28:08.079Z,99.90
2019-01-28T18:30:43.176Z,99.90
2019-01-28T18:33:12.054Z,99.90
2019-01-28T18:35:41.018Z,99.90
2019-01-28T18:38:10.086Z,99.90
2019-01-28T18:40:38.951Z,99.90
2019-01-28T18:43:08.167Z,99.90
2019-01-28T18:45:37.392Z,99.90
2019-01-28T18:48:08.229Z,99.90
2019-01-28T18:50:37.434Z,99.90
2019-01-28T18:53:08.003Z,99.90
2019-01-28T18:55:36.802Z,99.90
2019-01-28T18:58:06.256Z,99.90
2019-01-28T19:00:35.243Z,99.90
2019-01-28T19:03:05.055Z,99.90
2019-01-28T19:05:52.033Z,99.90
2019-01-28T19:08:31.597Z,99.90
2019-01-28T19:11:18.552Z,99.90
2019-01-28T19:13:55.319Z,99.90
2019-01-28T19:16:30.586Z,99.90
2019-01-28T19:19:13.041Z,99.90
2019-01-28T19:21:47.180Z,99.90
2019-01-28T19:24:15.963Z,99.90
2019-01-28T19:26:44.855Z,99.90
2019-01-28T19:29:13.699Z,99.90
2019-01-28T19:31:42.792Z,99.90
2019-01-28T19:34:11.647Z,99.90
2019-01-28T19:36:40.612Z,99.90
2019-01-28T19:39:10.370Z,99.90
2019-01-28T19:41:39.512Z,99.90
2019-01-28T19:44:08.731Z,99.90
2019-01-28T19:46:37.888Z,99.90
2019-01-28T19:49:06.886Z,99.90
2019-01-28T19:51:35.746Z,99.90
2019-01-28T19:54:05.722Z,99.90
2019-01-28T19:56:34.621Z,99.90
2019-01-28T19:59:03.476Z,99.90
2019-01-28T20:01:32.815Z,99.90
2019-01-28T20:04:01.666Z,99.90
2019-01-28T20:06:31.105Z,99.90
2019-01-28T20:09:00.115Z,99.90
2019-01-28T20:11:29.131Z,99.90
2019-01-28T20:13:58.149Z,99.90
2019-01-28T20:16:27.086Z,99.90
2019-01-28T20:18:56.154Z,99.90
2019-01-28T20:21:25.087Z,99.90
2019-01-28T20:23:54.036Z,99.90
2019-01-28T20:26:22.986Z,99.90
2019-01-28T20:28:51.885Z,99.90
2019-01-28T20:31:22.060Z,99.90
2019-01-28T20:33:51.238Z,99.90
2019-01-28T20:36:20.098Z,99.90
2019-01-28T20:38:49.325Z,99.90
2019-01-28T20:41:18.118Z,99.90
2019-01-28T20:43:47.000Z,99.90
2019-01-28T20:46:16.026Z,99.90
2019-01-28T20:48:44.923Z,99.90
2019-01-28T20:51:14.084Z,99.90
2019-01-28T20:53:42.892Z,99.90
2019-01-28T20:56:12.060Z,99.90
2019-01-28T20:58:41.125Z,99.90
2019-01-28T21:01:10.394Z,99.90
2019-01-28T21:03:39.271Z,99.90
2019-01-28T21:06:08.527Z,99.90
2019-01-28T21:08:37.587Z,99.90
2019-01-28T21:11:06.711Z,99.90
2019-01-28T21:13:35.951Z,99.90
2019-01-28T21:16:05.487Z,99.90
2019-01-28T21:18:34.422Z,99.90
2019-01-28T21:21:03.730Z,99.90
2019-01-28T21:23:32.882Z,99.90
2019-01-28T21:26:01.992Z,99.90
2019-01-28T21:28:31.123Z,99.90
2019-01-28T21:31:03.615Z,99.90
2019-01-28T21:33:32.914Z,99.90
2019-01-28T21:36:18.225Z,99.90
2019-01-28T21:38:51.661Z,99.90
2019-01-28T21:41:20.844Z,99.90
2019-01-28T21:43:50.146Z,99.90
2019-01-28T21:46:19.763Z,99.90
2019-01-28T21:48:49.197Z,99.90
2019-01-28T21:51:18.060Z,99.90
2019-01-28T21:53:46.995Z,99.90
2019-01-28T21:56:16.302Z,99.90
2019-01-28T21:58:45.132Z,99.90
2019-01-28T22:01:14.123Z,99.90
2019-01-28T22:03:43.069Z,99.90
2019-01-28T22:06:11.953Z,99.90
2019-01-28T22:08:41.649Z,99.90
2019-01-28T22:11:10.645Z,99.90
2019-01-28T22:13:39.491Z,99.90
2019-01-28T22:16:08.383Z,99.90
2019-01-28T22:18:37.253Z,99.90
2019-01-28T22:21:13.039Z,99.90
2019-01-28T22:23:44.649Z,99.90
2019-01-28T22:26:13.322Z,99.90
2019-01-28T22:28:42.186Z,99.90
2019-01-28T22:31:11.675Z,99.90
2019-01-28T22:33:40.567Z,99.90
2019-01-28T22:36:09.439Z,99.90
2019-01-28T22:38:38.290Z,99.90
2019-01-28T22:41:07.075Z,99.90
2019-01-28T22:43:36.547Z,99.90
2019-01-28T22:46:05.840Z,99.90
2019-01-28T22:48:34.941Z,99.90
2019-01-28T22:51:04.575Z,99.90
2019-01-28T22:53:33.455Z,99.90
2019-01-28T22:56:02.373Z,99.90
2019-01-28T22:58:31.362Z,99.90
2019-01-28T23:01:26.951Z,99.90
2019-01-28T23:03:56.213Z,99.90
2019-01-28T23:06:25.259Z,99.90
2019-01-28T23:08:54.378Z,99.90
2019-01-28T23:11:23.528Z,99.90
2019-01-28T23:13:52.564Z,99.90
2019-01-28T23:16:21.604Z,99.90
2019-01-28T23:18:50.577Z,99.90
2019-01-28T23:21:19.519Z,99.90
2019-01-28T23:23:48.357Z,99.90
2019-01-28T23:26:17.336Z,99.90
2019-01-28T23:28:46.145Z,99.90
2019-01-28T23:31:15.484Z,99.90
2019-01-28T23:33:44.248Z,99.90
2019-01-28T23:36:32.445Z,99.90
2019-01-28T23:39:01.232Z,99.90
2019-01-28T23:41:30.047Z,99.90
2019-01-28T23:43:58.911Z,99.90
2019-01-28T23:46:27.774Z,99.90
2019-01-28T23:48:56.607Z,99.90
2019-01-28T23:51:25.838Z,99.90
2019-01-28T23:53:54.694Z,99.90
2019-01-28T23:56:23.494Z,99.90
2019-01-28T23:58:52.747Z,99.90
